sensor_id;sensor_type;location;lat;lon;timestamp;P1;durP1;ratioP1;P2;durP2;ratioP2
25449;SDS011;13371;52.080;5.624;2022-08-21T00:01:49;7.03;;;3.70;;
25449;SDS011;13371;52.080;5.624;2022-08-21T00:04:15;7.32;;;4.40;;
25449;SDS011;13371;52.080;5.624;2022-08-21T00:06:40;7.45;;;4.63;;
25449;SDS011;13371;52.080;5.624;2022-08-21T00:09:06;6.75;;;4.10;;
25449;SDS011;13371;52.080;5.624;2022-08-21T00:11:33;7.40;;;4.20;;
25449;SDS011;13371;52.080;5.624;2022-08-21T00:14:00;8.23;;;4.65;;
25449;SDS011;13371;52.080;5.624;2022-08-21T00:16:25;8.60;;;4.43;;
25449;SDS011;13371;52.080;5.624;2022-08-21T00:18:51;5.93;;;4.45;;
25449;SDS011;13371;52.080;5.624;2022-08-21T00:21:17;6.78;;;4.40;;
25449;SDS011;13371;52.080;5.624;2022-08-21T00:23:42;9.15;;;4.45;;
25449;SDS011;13371;52.080;5.624;2022-08-21T00:26:08;9.57;;;4.57;;
25449;SDS011;13371;52.080;5.624;2022-08-21T00:28:34;10.85;;;4.88;;
25449;SDS011;13371;52.080;5.624;2022-08-21T00:31:00;6.25;;;3.78;;
25449;SDS011;13371;52.080;5.624;2022-08-21T00:33:26;11.10;;;4.00;;
25449;SDS011;13371;52.080;5.624;2022-08-21T00:35:51;6.90;;;3.88;;
25449;SDS011;13371;52.080;5.624;2022-08-21T00:38:17;6.47;;;4.00;;
25449;SDS011;13371;52.080;5.624;2022-08-21T00:40:47;8.60;;;4.22;;
25449;SDS011;13371;52.080;5.624;2022-08-21T00:43:20;6.45;;;3.45;;
25449;SDS011;13371;52.080;5.624;2022-08-21T00:45:47;8.38;;;3.92;;
25449;SDS011;13371;52.080;5.624;2022-08-21T00:48:13;7.93;;;4.00;;
25449;SDS011;13371;52.080;5.624;2022-08-21T00:51:21;7.75;;;3.83;;
25449;SDS011;13371;52.080;5.624;2022-08-21T00:53:30;6.80;;;3.75;;
25449;SDS011;13371;52.080;5.624;2022-08-21T00:55:57;6.72;;;3.65;;
25449;SDS011;13371;52.080;5.624;2022-08-21T00:58:24;5.95;;;3.83;;
25449;SDS011;13371;52.080;5.624;2022-08-21T01:00:52;10.35;;;4.85;;
25449;SDS011;13371;52.080;5.624;2022-08-21T01:03:19;5.93;;;4.10;;
25449;SDS011;13371;52.080;5.624;2022-08-21T01:05:47;6.75;;;4.07;;
25449;SDS011;13371;52.080;5.624;2022-08-21T01:08:13;5.55;;;3.72;;
25449;SDS011;13371;52.080;5.624;2022-08-21T01:10:42;7.72;;;4.65;;
25449;SDS011;13371;52.080;5.624;2022-08-21T01:13:09;10.02;;;4.30;;
25449;SDS011;13371;52.080;5.624;2022-08-21T01:15:37;9.57;;;4.20;;
25449;SDS011;13371;52.080;5.624;2022-08-21T01:18:05;7.90;;;4.40;;
25449;SDS011;13371;52.080;5.624;2022-08-21T01:20:33;9.65;;;3.85;;
25449;SDS011;13371;52.080;5.624;2022-08-21T01:23:00;6.00;;;3.88;;
25449;SDS011;13371;52.080;5.624;2022-08-21T01:25:27;10.13;;;4.43;;
25449;SDS011;13371;52.080;5.624;2022-08-21T01:27:52;8.43;;;4.25;;
25449;SDS011;13371;52.080;5.624;2022-08-21T01:30:23;8.95;;;4.18;;
25449;SDS011;13371;52.080;5.624;2022-08-21T01:32:50;9.00;;;4.32;;
25449;SDS011;13371;52.080;5.624;2022-08-21T01:35:17;7.53;;;4.50;;
25449;SDS011;13371;52.080;5.624;2022-08-21T01:37:44;8.60;;;4.32;;
25449;SDS011;13371;52.080;5.624;2022-08-21T01:40:10;6.22;;;4.25;;
25449;SDS011;13371;52.080;5.624;2022-08-21T01:42:39;9.68;;;4.22;;
25449;SDS011;13371;52.080;5.624;2022-08-21T01:45:06;7.22;;;4.30;;
25449;SDS011;13371;52.080;5.624;2022-08-21T01:47:32;7.50;;;4.35;;
25449;SDS011;13371;52.080;5.624;2022-08-21T01:49:58;9.52;;;4.50;;
25449;SDS011;13371;52.080;5.624;2022-08-21T01:52:24;5.18;;;4.18;;
25449;SDS011;13371;52.080;5.624;2022-08-21T01:54:50;8.35;;;4.95;;
25449;SDS011;13371;52.080;5.624;2022-08-21T01:57:15;7.15;;;4.57;;
25449;SDS011;13371;52.080;5.624;2022-08-21T01:59:41;12.10;;;5.20;;
25449;SDS011;13371;52.080;5.624;2022-08-21T02:02:07;14.40;;;4.75;;
25449;SDS011;13371;52.080;5.624;2022-08-21T02:04:32;8.20;;;4.63;;
25449;SDS011;13371;52.080;5.624;2022-08-21T02:06:59;9.07;;;4.80;;
25449;SDS011;13371;52.080;5.624;2022-08-21T02:09:25;10.07;;;4.72;;
25449;SDS011;13371;52.080;5.624;2022-08-21T02:11:51;8.52;;;4.90;;
25449;SDS011;13371;52.080;5.624;2022-08-21T02:14:16;7.85;;;4.38;;
25449;SDS011;13371;52.080;5.624;2022-08-21T02:16:42;8.32;;;4.55;;
25449;SDS011;13371;52.080;5.624;2022-08-21T02:19:09;7.30;;;4.30;;
25449;SDS011;13371;52.080;5.624;2022-08-21T02:21:35;6.45;;;4.57;;
25449;SDS011;13371;52.080;5.624;2022-08-21T02:24:01;6.80;;;4.38;;
25449;SDS011;13371;52.080;5.624;2022-08-21T02:26:27;5.93;;;4.25;;
25449;SDS011;13371;52.080;5.624;2022-08-21T02:28:53;8.07;;;5.00;;
25449;SDS011;13371;52.080;5.624;2022-08-21T02:31:18;7.97;;;4.68;;
25449;SDS011;13371;52.080;5.624;2022-08-21T02:33:44;8.45;;;5.20;;
25449;SDS011;13371;52.080;5.624;2022-08-21T02:36:10;8.85;;;4.93;;
25449;SDS011;13371;52.080;5.624;2022-08-21T02:38:37;9.43;;;5.25;;
25449;SDS011;13371;52.080;5.624;2022-08-21T02:41:05;11.00;;;5.40;;
25449;SDS011;13371;52.080;5.624;2022-08-21T02:43:32;9.00;;;4.65;;
25449;SDS011;13371;52.080;5.624;2022-08-21T02:45:58;10.10;;;5.43;;
25449;SDS011;13371;52.080;5.624;2022-08-21T02:48:25;12.15;;;6.13;;
25449;SDS011;13371;52.080;5.624;2022-08-21T02:50:57;9.75;;;5.47;;
25449;SDS011;13371;52.080;5.624;2022-08-21T02:53:23;10.93;;;5.57;;
25449;SDS011;13371;52.080;5.624;2022-08-21T02:55:50;10.95;;;5.65;;
25449;SDS011;13371;52.080;5.624;2022-08-21T02:58:18;9.65;;;5.68;;
25449;SDS011;13371;52.080;5.624;2022-08-21T03:00:46;8.90;;;5.70;;
25449;SDS011;13371;52.080;5.624;2022-08-21T03:03:12;8.43;;;5.20;;
25449;SDS011;13371;52.080;5.624;2022-08-21T03:05:39;8.05;;;5.50;;
25449;SDS011;13371;52.080;5.624;2022-08-21T03:08:07;11.73;;;5.78;;
25449;SDS011;13371;52.080;5.624;2022-08-21T03:10:36;11.98;;;5.53;;
25449;SDS011;13371;52.080;5.624;2022-08-21T03:13:05;14.30;;;5.65;;
25449;SDS011;13371;52.080;5.624;2022-08-21T03:15:31;9.93;;;5.63;;
25449;SDS011;13371;52.080;5.624;2022-08-21T03:17:58;9.75;;;5.43;;
25449;SDS011;13371;52.080;5.624;2022-08-21T03:20:24;10.27;;;5.50;;
25449;SDS011;13371;52.080;5.624;2022-08-21T03:22:52;11.70;;;6.40;;
25449;SDS011;13371;52.080;5.624;2022-08-21T03:25:18;12.20;;;6.10;;
25449;SDS011;13371;52.080;5.624;2022-08-21T03:27:45;11.30;;;6.35;;
25449;SDS011;13371;52.080;5.624;2022-08-21T03:30:14;10.63;;;5.85;;
25449;SDS011;13371;52.080;5.624;2022-08-21T03:32:41;11.57;;;5.95;;
25449;SDS011;13371;52.080;5.624;2022-08-21T03:35:07;8.95;;;5.70;;
25449;SDS011;13371;52.080;5.624;2022-08-21T03:37:33;9.75;;;6.15;;
25449;SDS011;13371;52.080;5.624;2022-08-21T03:39:59;8.30;;;5.80;;
25449;SDS011;13371;52.080;5.624;2022-08-21T03:42:25;9.52;;;5.95;;
25449;SDS011;13371;52.080;5.624;2022-08-21T03:44:50;9.80;;;5.85;;
25449;SDS011;13371;52.080;5.624;2022-08-21T03:47:16;12.15;;;6.40;;
25449;SDS011;13371;52.080;5.624;2022-08-21T03:49:42;9.70;;;6.55;;
25449;SDS011;13371;52.080;5.624;2022-08-21T03:52:07;10.13;;;6.35;;
25449;SDS011;13371;52.080;5.624;2022-08-21T03:54:33;9.50;;;5.70;;
25449;SDS011;13371;52.080;5.624;2022-08-21T03:56:59;12.90;;;6.03;;
25449;SDS011;13371;52.080;5.624;2022-08-21T03:59:25;12.32;;;6.45;;
25449;SDS011;13371;52.080;5.624;2022-08-21T04:01:51;11.52;;;6.35;;
25449;SDS011;13371;52.080;5.624;2022-08-21T04:04:17;9.98;;;7.00;;
25449;SDS011;13371;52.080;5.624;2022-08-21T04:06:43;8.00;;;5.78;;
25449;SDS011;13371;52.080;5.624;2022-08-21T04:09:08;12.68;;;6.45;;
25449;SDS011;13371;52.080;5.624;2022-08-21T04:11:34;12.88;;;6.30;;
25449;SDS011;13371;52.080;5.624;2022-08-21T04:14:00;12.23;;;6.07;;
25449;SDS011;13371;52.080;5.624;2022-08-21T04:16:25;10.98;;;7.25;;
25449;SDS011;13371;52.080;5.624;2022-08-21T04:18:50;8.73;;;6.10;;
25449;SDS011;13371;52.080;5.624;2022-08-21T04:21:16;10.52;;;6.03;;
25449;SDS011;13371;52.080;5.624;2022-08-21T04:23:42;10.07;;;6.28;;
25449;SDS011;13371;52.080;5.624;2022-08-21T04:26:07;9.45;;;6.25;;
25449;SDS011;13371;52.080;5.624;2022-08-21T04:28:33;7.82;;;5.60;;
25449;SDS011;13371;52.080;5.624;2022-08-21T04:30:58;11.60;;;6.15;;
25449;SDS011;13371;52.080;5.624;2022-08-21T04:33:24;11.75;;;6.30;;
25449;SDS011;13371;52.080;5.624;2022-08-21T04:35:50;11.90;;;6.45;;
25449;SDS011;13371;52.080;5.624;2022-08-21T04:38:16;12.75;;;6.63;;
25449;SDS011;13371;52.080;5.624;2022-08-21T04:40:41;9.63;;;6.45;;
25449;SDS011;13371;52.080;5.624;2022-08-21T04:43:08;11.07;;;7.13;;
25449;SDS011;13371;52.080;5.624;2022-08-21T04:45:36;9.85;;;7.03;;
25449;SDS011;13371;52.080;5.624;2022-08-21T04:48:12;12.65;;;6.78;;
25449;SDS011;13371;52.080;5.624;2022-08-21T04:50:45;11.10;;;6.72;;
25449;SDS011;13371;52.080;5.624;2022-08-21T04:53:18;9.40;;;6.22;;
25449;SDS011;13371;52.080;5.624;2022-08-21T04:55:49;10.10;;;6.28;;
25449;SDS011;13371;52.080;5.624;2022-08-21T04:58:18;14.25;;;7.07;;
25449;SDS011;13371;52.080;5.624;2022-08-21T05:00:46;10.50;;;7.22;;
25449;SDS011;13371;52.080;5.624;2022-08-21T05:03:12;13.45;;;6.95;;
25449;SDS011;13371;52.080;5.624;2022-08-21T05:05:41;12.20;;;7.00;;
25449;SDS011;13371;52.080;5.624;2022-08-21T05:08:08;10.35;;;6.22;;
25449;SDS011;13371;52.080;5.624;2022-08-21T05:10:39;10.98;;;6.68;;
25449;SDS011;13371;52.080;5.624;2022-08-21T05:13:05;9.43;;;6.65;;
25449;SDS011;13371;52.080;5.624;2022-08-21T05:15:32;12.00;;;6.95;;
25449;SDS011;13371;52.080;5.624;2022-08-21T05:17:57;9.75;;;6.72;;
25449;SDS011;13371;52.080;5.624;2022-08-21T05:20:23;10.52;;;6.97;;
25449;SDS011;13371;52.080;5.624;2022-08-21T05:22:49;12.43;;;7.75;;
25449;SDS011;13371;52.080;5.624;2022-08-21T05:25:14;12.10;;;7.47;;
25449;SDS011;13371;52.080;5.624;2022-08-21T05:27:41;17.30;;;8.27;;
25449;SDS011;13371;52.080;5.624;2022-08-21T05:30:08;9.77;;;6.90;;
25449;SDS011;13371;52.080;5.624;2022-08-21T05:32:34;14.07;;;7.85;;
25449;SDS011;13371;52.080;5.624;2022-08-21T05:35:00;10.20;;;8.18;;
25449;SDS011;13371;52.080;5.624;2022-08-21T05:37:27;14.38;;;8.30;;
25449;SDS011;13371;52.080;5.624;2022-08-21T05:39:53;12.10;;;8.48;;
25449;SDS011;13371;52.080;5.624;2022-08-21T05:42:18;12.57;;;9.15;;
25449;SDS011;13371;52.080;5.624;2022-08-21T05:44:44;14.25;;;8.10;;
25449;SDS011;13371;52.080;5.624;2022-08-21T05:47:10;15.50;;;8.77;;
25449;SDS011;13371;52.080;5.624;2022-08-21T05:49:36;15.32;;;9.07;;
25449;SDS011;13371;52.080;5.624;2022-08-21T05:52:02;14.15;;;8.82;;
25449;SDS011;13371;52.080;5.624;2022-08-21T05:54:28;15.05;;;8.57;;
25449;SDS011;13371;52.080;5.624;2022-08-21T05:56:54;12.18;;;8.98;;
25449;SDS011;13371;52.080;5.624;2022-08-21T05:59:20;14.02;;;8.73;;
25449;SDS011;13371;52.080;5.624;2022-08-21T06:01:45;15.10;;;9.05;;
25449;SDS011;13371;52.080;5.624;2022-08-21T06:04:11;13.85;;;9.10;;
25449;SDS011;13371;52.080;5.624;2022-08-21T06:06:37;16.17;;;9.40;;
25449;SDS011;13371;52.080;5.624;2022-08-21T06:09:03;12.32;;;9.00;;
25449;SDS011;13371;52.080;5.624;2022-08-21T06:11:30;15.25;;;9.57;;
25449;SDS011;13371;52.080;5.624;2022-08-21T06:13:56;17.15;;;9.27;;
25449;SDS011;13371;52.080;5.624;2022-08-21T06:16:22;14.10;;;9.38;;
25449;SDS011;13371;52.080;5.624;2022-08-21T06:18:50;14.02;;;9.15;;
25449;SDS011;13371;52.080;5.624;2022-08-21T06:21:15;14.70;;;9.20;;
25449;SDS011;13371;52.080;5.624;2022-08-21T06:23:41;12.77;;;8.68;;
25449;SDS011;13371;52.080;5.624;2022-08-21T06:26:08;13.60;;;9.45;;
25449;SDS011;13371;52.080;5.624;2022-08-21T06:28:36;17.08;;;9.00;;
25449;SDS011;13371;52.080;5.624;2022-08-21T06:31:09;13.48;;;9.02;;
25449;SDS011;13371;52.080;5.624;2022-08-21T06:33:40;18.98;;;9.32;;
25449;SDS011;13371;52.080;5.624;2022-08-21T06:36:06;14.65;;;7.88;;
25449;SDS011;13371;52.080;5.624;2022-08-21T06:38:32;13.75;;;7.47;;
25449;SDS011;13371;52.080;5.624;2022-08-21T06:40:58;10.70;;;8.20;;
25449;SDS011;13371;52.080;5.624;2022-08-21T06:43:23;19.17;;;8.05;;
25449;SDS011;13371;52.080;5.624;2022-08-21T06:45:49;13.70;;;7.25;;
25449;SDS011;13371;52.080;5.624;2022-08-21T06:48:14;14.15;;;7.75;;
25449;SDS011;13371;52.080;5.624;2022-08-21T06:50:40;14.50;;;7.43;;
25449;SDS011;13371;52.080;5.624;2022-08-21T06:53:09;16.05;;;6.43;;
25449;SDS011;13371;52.080;5.624;2022-08-21T06:55:37;11.75;;;5.85;;
25449;SDS011;13371;52.080;5.624;2022-08-21T06:58:03;12.88;;;6.90;;
25449;SDS011;13371;52.080;5.624;2022-08-21T07:00:29;13.75;;;5.97;;
25449;SDS011;13371;52.080;5.624;2022-08-21T07:02:55;11.85;;;6.03;;
25449;SDS011;13371;52.080;5.624;2022-08-21T07:05:22;11.45;;;5.15;;
25449;SDS011;13371;52.080;5.624;2022-08-21T07:07:50;20.05;;;6.20;;
25449;SDS011;13371;52.080;5.624;2022-08-21T07:10:16;15.60;;;5.35;;
25449;SDS011;13371;52.080;5.624;2022-08-21T07:12:41;11.85;;;5.30;;
25449;SDS011;13371;52.080;5.624;2022-08-21T07:15:07;10.88;;;5.20;;
25449;SDS011;13371;52.080;5.624;2022-08-21T07:17:33;12.00;;;5.68;;
25449;SDS011;13371;52.080;5.624;2022-08-21T07:19:59;19.98;;;6.07;;
25449;SDS011;13371;52.080;5.624;2022-08-21T07:22:24;11.75;;;5.45;;
25449;SDS011;13371;52.080;5.624;2022-08-21T07:24:52;15.40;;;5.95;;
25449;SDS011;13371;52.080;5.624;2022-08-21T07:27:18;20.50;;;6.20;;
25449;SDS011;13371;52.080;5.624;2022-08-21T07:29:44;16.25;;;5.32;;
25449;SDS011;13371;52.080;5.624;2022-08-21T07:32:09;11.95;;;5.60;;
25449;SDS011;13371;52.080;5.624;2022-08-21T07:34:35;12.20;;;5.32;;
25449;SDS011;13371;52.080;5.624;2022-08-21T07:37:00;10.48;;;5.50;;
25449;SDS011;13371;52.080;5.624;2022-08-21T07:39:26;13.15;;;5.03;;
25449;SDS011;13371;52.080;5.624;2022-08-21T07:41:51;16.77;;;5.18;;
25449;SDS011;13371;52.080;5.624;2022-08-21T07:44:17;10.73;;;4.90;;
25449;SDS011;13371;52.080;5.624;2022-08-21T07:46:43;12.93;;;4.15;;
25449;SDS011;13371;52.080;5.624;2022-08-21T07:49:08;16.90;;;4.95;;
25449;SDS011;13371;52.080;5.624;2022-08-21T07:51:34;16.40;;;5.20;;
25449;SDS011;13371;52.080;5.624;2022-08-21T07:54:00;11.10;;;5.20;;
25449;SDS011;13371;52.080;5.624;2022-08-21T07:56:26;20.30;;;4.43;;
25449;SDS011;13371;52.080;5.624;2022-08-21T07:58:53;15.57;;;5.07;;
25449;SDS011;13371;52.080;5.624;2022-08-21T08:01:19;13.98;;;4.43;;
25449;SDS011;13371;52.080;5.624;2022-08-21T08:03:45;11.73;;;4.53;;
25449;SDS011;13371;52.080;5.624;2022-08-21T08:06:11;9.30;;;4.65;;
25449;SDS011;13371;52.080;5.624;2022-08-21T08:08:42;15.02;;;4.22;;
25449;SDS011;13371;52.080;5.624;2022-08-21T08:11:08;10.48;;;4.88;;
25449;SDS011;13371;52.080;5.624;2022-08-21T08:13:48;14.73;;;4.57;;
25449;SDS011;13371;52.080;5.624;2022-08-21T08:16:15;10.93;;;4.25;;
25449;SDS011;13371;52.080;5.624;2022-08-21T08:18:41;14.18;;;4.88;;
25449;SDS011;13371;52.080;5.624;2022-08-21T08:21:08;15.90;;;4.95;;
25449;SDS011;13371;52.080;5.624;2022-08-21T08:23:34;15.18;;;4.45;;
25449;SDS011;13371;52.080;5.624;2022-08-21T08:26:00;8.13;;;3.90;;
25449;SDS011;13371;52.080;5.624;2022-08-21T08:28:27;11.80;;;3.97;;
25449;SDS011;13371;52.080;5.624;2022-08-21T08:30:55;11.05;;;4.20;;
25449;SDS011;13371;52.080;5.624;2022-08-21T08:33:20;10.43;;;4.63;;
25449;SDS011;13371;52.080;5.624;2022-08-21T08:35:48;15.13;;;4.30;;
25449;SDS011;13371;52.080;5.624;2022-08-21T08:38:16;11.15;;;3.75;;
25449;SDS011;13371;52.080;5.624;2022-08-21T08:40:50;16.70;;;4.38;;
25449;SDS011;13371;52.080;5.624;2022-08-21T08:43:25;13.77;;;4.05;;
25449;SDS011;13371;52.080;5.624;2022-08-21T08:45:52;15.75;;;4.43;;
25449;SDS011;13371;52.080;5.624;2022-08-21T08:48:32;9.15;;;3.60;;
25449;SDS011;13371;52.080;5.624;2022-08-21T08:51:13;10.98;;;3.53;;
25449;SDS011;13371;52.080;5.624;2022-08-21T08:53:49;18.35;;;3.60;;
25449;SDS011;13371;52.080;5.624;2022-08-21T08:56:22;10.45;;;3.53;;
25449;SDS011;13371;52.080;5.624;2022-08-21T08:58:53;14.75;;;3.65;;
25449;SDS011;13371;52.080;5.624;2022-08-21T09:01:25;13.30;;;3.40;;
25449;SDS011;13371;52.080;5.624;2022-08-21T09:03:51;11.40;;;3.30;;
25449;SDS011;13371;52.080;5.624;2022-08-21T09:06:25;8.07;;;2.92;;
25449;SDS011;13371;52.080;5.624;2022-08-21T09:09:07;8.82;;;3.13;;
25449;SDS011;13371;52.080;5.624;2022-08-21T09:11:42;8.13;;;2.53;;
25449;SDS011;13371;52.080;5.624;2022-08-21T09:14:26;10.52;;;2.58;;
25449;SDS011;13371;52.080;5.624;2022-08-21T09:22:36;13.45;;;3.03;;
25449;SDS011;13371;52.080;5.624;2022-08-21T09:27:48;9.10;;;2.47;;
25449;SDS011;13371;52.080;5.624;2022-08-21T09:30:15;9.82;;;2.00;;
25449;SDS011;13371;52.080;5.624;2022-08-21T09:32:41;9.55;;;2.30;;
25449;SDS011;13371;52.080;5.624;2022-08-21T09:35:09;9.25;;;2.67;;
25449;SDS011;13371;52.080;5.624;2022-08-21T09:37:48;7.85;;;2.10;;
25449;SDS011;13371;52.080;5.624;2022-08-21T09:43:17;8.40;;;1.77;;
25449;SDS011;13371;52.080;5.624;2022-08-21T09:45:45;7.25;;;2.10;;
25449;SDS011;13371;52.080;5.624;2022-08-21T09:48:19;4.85;;;1.70;;
25449;SDS011;13371;52.080;5.624;2022-08-21T09:50:50;7.40;;;2.03;;
25449;SDS011;13371;52.080;5.624;2022-08-21T09:55:47;10.07;;;1.92;;
25449;SDS011;13371;52.080;5.624;2022-08-21T09:58:35;7.22;;;2.13;;
25449;SDS011;13371;52.080;5.624;2022-08-21T10:01:04;8.57;;;2.10;;
25449;SDS011;13371;52.080;5.624;2022-08-21T10:03:31;7.15;;;1.88;;
25449;SDS011;13371;52.080;5.624;2022-08-21T10:05:58;5.35;;;1.98;;
25449;SDS011;13371;52.080;5.624;2022-08-21T10:08:30;10.02;;;1.95;;
25449;SDS011;13371;52.080;5.624;2022-08-21T10:11:05;11.07;;;2.00;;
25449;SDS011;13371;52.080;5.624;2022-08-21T10:16:36;7.30;;;1.77;;
25449;SDS011;13371;52.080;5.624;2022-08-21T10:19:32;9.50;;;1.58;;
25449;SDS011;13371;52.080;5.624;2022-08-21T10:25:06;5.57;;;1.80;;
25449;SDS011;13371;52.080;5.624;2022-08-21T10:27:52;6.35;;;1.67;;
25449;SDS011;13371;52.080;5.624;2022-08-21T10:33:27;7.07;;;1.50;;
25449;SDS011;13371;52.080;5.624;2022-08-21T10:36:10;7.03;;;1.63;;
25449;SDS011;13371;52.080;5.624;2022-08-21T10:38:42;9.82;;;1.85;;
25449;SDS011;13371;52.080;5.624;2022-08-21T10:46:51;6.15;;;1.30;;
25449;SDS011;13371;52.080;5.624;2022-08-21T10:49:26;6.65;;;1.83;;
25449;SDS011;13371;52.080;5.624;2022-08-21T10:54:55;6.60;;;1.75;;
25449;SDS011;13371;52.080;5.624;2022-08-21T10:57:29;5.60;;;1.65;;
25449;SDS011;13371;52.080;5.624;2022-08-21T11:00:10;5.85;;;1.63;;
25449;SDS011;13371;52.080;5.624;2022-08-21T11:05:33;6.15;;;1.48;;
25449;SDS011;13371;52.080;5.624;2022-08-21T11:08:12;4.15;;;1.13;;
25449;SDS011;13371;52.080;5.624;2022-08-21T11:10:56;4.97;;;1.58;;
25449;SDS011;13371;52.080;5.624;2022-08-21T11:13:41;6.80;;;1.25;;
25449;SDS011;13371;52.080;5.624;2022-08-21T11:16:28;5.82;;;1.40;;
25449;SDS011;13371;52.080;5.624;2022-08-21T11:29:50;4.55;;;1.42;;
25449;SDS011;13371;52.080;5.624;2022-08-21T11:40:37;4.25;;;1.33;;
25449;SDS011;13371;52.080;5.624;2022-08-21T11:48:54;4.45;;;1.20;;
25449;SDS011;13371;52.080;5.624;2022-08-21T11:51:31;6.82;;;1.40;;
25449;SDS011;13371;52.080;5.624;2022-08-21T11:56:48;6.90;;;1.35;;
25449;SDS011;13371;52.080;5.624;2022-08-21T11:59:34;5.47;;;1.60;;
25449;SDS011;13371;52.080;5.624;2022-08-21T12:02:14;7.28;;;1.80;;
25449;SDS011;13371;52.080;5.624;2022-08-21T12:04:47;9.90;;;1.88;;
25449;SDS011;13371;52.080;5.624;2022-08-21T12:07:28;7.00;;;1.25;;
25449;SDS011;13371;52.080;5.624;2022-08-21T12:10:18;9.95;;;2.05;;
25449;SDS011;13371;52.080;5.624;2022-08-21T12:12:47;5.50;;;1.30;;
25449;SDS011;13371;52.080;5.624;2022-08-21T12:17:52;8.23;;;1.60;;
25449;SDS011;13371;52.080;5.624;2022-08-21T12:23:02;7.57;;;1.52;;
25449;SDS011;13371;52.080;5.624;2022-08-21T12:25:42;4.80;;;1.38;;
25449;SDS011;13371;52.080;5.624;2022-08-21T12:28:23;7.53;;;1.27;;
25449;SDS011;13371;52.080;5.624;2022-08-21T12:30:50;6.05;;;1.40;;
25449;SDS011;13371;52.080;5.624;2022-08-21T12:36:00;8.38;;;1.27;;
25449;SDS011;13371;52.080;5.624;2022-08-21T12:38:59;6.38;;;1.63;;
25449;SDS011;13371;52.080;5.624;2022-08-21T12:41:37;6.45;;;1.50;;
25449;SDS011;13371;52.080;5.624;2022-08-21T12:44:22;3.83;;;1.20;;
25449;SDS011;13371;52.080;5.624;2022-08-21T12:47:18;5.47;;;1.20;;
25449;SDS011;13371;52.080;5.624;2022-08-21T12:50:03;4.78;;;1.30;;
25449;SDS011;13371;52.080;5.624;2022-08-21T12:52:34;6.18;;;1.63;;
25449;SDS011;13371;52.080;5.624;2022-08-21T12:55:04;4.00;;;1.30;;
25449;SDS011;13371;52.080;5.624;2022-08-21T12:57:35;6.35;;;1.80;;
25449;SDS011;13371;52.080;5.624;2022-08-21T13:00:04;5.28;;;1.48;;
25449;SDS011;13371;52.080;5.624;2022-08-21T13:02:38;6.60;;;1.20;;
25449;SDS011;13371;52.080;5.624;2022-08-21T13:05:08;5.00;;;1.75;;
25449;SDS011;13371;52.080;5.624;2022-08-21T13:07:42;6.85;;;1.83;;
25449;SDS011;13371;52.080;5.624;2022-08-21T13:10:16;5.07;;;1.60;;
25449;SDS011;13371;52.080;5.624;2022-08-21T13:12:43;7.22;;;1.40;;
25449;SDS011;13371;52.080;5.624;2022-08-21T13:15:09;5.75;;;1.40;;
25449;SDS011;13371;52.080;5.624;2022-08-21T13:17:38;6.03;;;1.40;;
25449;SDS011;13371;52.080;5.624;2022-08-21T13:20:24;8.60;;;1.50;;
25449;SDS011;13371;52.080;5.624;2022-08-21T13:22:52;7.30;;;1.52;;
25449;SDS011;13371;52.080;5.624;2022-08-21T13:25:19;9.18;;;1.70;;
25449;SDS011;13371;52.080;5.624;2022-08-21T13:30:42;7.30;;;1.20;;
25449;SDS011;13371;52.080;5.624;2022-08-21T13:33:14;5.88;;;1.35;;
25449;SDS011;13371;52.080;5.624;2022-08-21T13:35:49;6.22;;;1.52;;
25449;SDS011;13371;52.080;5.624;2022-08-21T13:38:23;8.20;;;1.38;;
25449;SDS011;13371;52.080;5.624;2022-08-21T13:40:53;5.82;;;1.20;;
25449;SDS011;13371;52.080;5.624;2022-08-21T13:43:27;4.93;;;1.23;;
25449;SDS011;13371;52.080;5.624;2022-08-21T13:46:01;5.95;;;1.63;;
25449;SDS011;13371;52.080;5.624;2022-08-21T13:48:33;5.15;;;1.27;;
25449;SDS011;13371;52.080;5.624;2022-08-21T13:50:59;4.30;;;1.10;;
25449;SDS011;13371;52.080;5.624;2022-08-21T13:55:56;4.38;;;1.30;;
25449;SDS011;13371;52.080;5.624;2022-08-21T13:58:26;4.60;;;1.10;;
25449;SDS011;13371;52.080;5.624;2022-08-21T14:00:57;7.47;;;1.35;;
25449;SDS011;13371;52.080;5.624;2022-08-21T14:03:31;5.40;;;1.30;;
25449;SDS011;13371;52.080;5.624;2022-08-21T14:09:13;3.92;;;1.67;;
25449;SDS011;13371;52.080;5.624;2022-08-21T14:11:50;6.38;;;1.33;;
25449;SDS011;13371;52.080;5.624;2022-08-21T14:16:59;5.82;;;1.20;;
25449;SDS011;13371;52.080;5.624;2022-08-21T14:24:48;3.95;;;1.20;;
25449;SDS011;13371;52.080;5.624;2022-08-21T14:27:16;5.57;;;1.30;;
25449;SDS011;13371;52.080;5.624;2022-08-21T14:29:44;4.55;;;1.10;;
25449;SDS011;13371;52.080;5.624;2022-08-21T14:32:19;5.05;;;1.45;;
25449;SDS011;13371;52.080;5.624;2022-08-21T14:34:47;5.28;;;1.40;;
25449;SDS011;13371;52.080;5.624;2022-08-21T14:37:12;8.80;;;1.60;;
25449;SDS011;13371;52.080;5.624;2022-08-21T14:39:38;6.30;;;1.33;;
25449;SDS011;13371;52.080;5.624;2022-08-21T14:42:04;6.25;;;1.40;;
25449;SDS011;13371;52.080;5.624;2022-08-21T14:44:30;5.00;;;1.23;;
25449;SDS011;13371;52.080;5.624;2022-08-21T14:46:58;6.13;;;1.33;;
25449;SDS011;13371;52.080;5.624;2022-08-21T14:49:24;6.32;;;1.23;;
25449;SDS011;13371;52.080;5.624;2022-08-21T14:51:54;6.40;;;1.48;;
25449;SDS011;13371;52.080;5.624;2022-08-21T14:54:22;4.88;;;1.15;;
25449;SDS011;13371;52.080;5.624;2022-08-21T14:56:52;4.45;;;1.30;;
25449;SDS011;13371;52.080;5.624;2022-08-21T14:59:19;6.93;;;1.02;;
25449;SDS011;13371;52.080;5.624;2022-08-21T15:01:45;4.65;;;1.10;;
25449;SDS011;13371;52.080;5.624;2022-08-21T15:04:11;5.80;;;1.23;;
25449;SDS011;13371;52.080;5.624;2022-08-21T15:06:36;7.57;;;1.55;;
25449;SDS011;13371;52.080;5.624;2022-08-21T15:09:02;5.53;;;1.15;;
25449;SDS011;13371;52.080;5.624;2022-08-21T15:11:30;4.13;;;1.02;;
25449;SDS011;13371;52.080;5.624;2022-08-21T15:13:57;4.55;;;1.52;;
25449;SDS011;13371;52.080;5.624;2022-08-21T15:16:26;6.47;;;2.20;;
25449;SDS011;13371;52.080;5.624;2022-08-21T15:18:53;9.77;;;2.20;;
25449;SDS011;13371;52.080;5.624;2022-08-21T15:21:18;6.47;;;1.83;;
25449;SDS011;13371;52.080;5.624;2022-08-21T15:23:44;5.88;;;1.63;;
25449;SDS011;13371;52.080;5.624;2022-08-21T15:26:09;7.13;;;1.63;;
25449;SDS011;13371;52.080;5.624;2022-08-21T15:28:35;3.40;;;1.25;;
25449;SDS011;13371;52.080;5.624;2022-08-21T15:31:03;6.38;;;1.50;;
25449;SDS011;13371;52.080;5.624;2022-08-21T15:33:29;6.20;;;1.20;;
25449;SDS011;13371;52.080;5.624;2022-08-21T15:35:55;6.07;;;1.52;;
25449;SDS011;13371;52.080;5.624;2022-08-21T15:38:21;5.28;;;1.10;;
25449;SDS011;13371;52.080;5.624;2022-08-21T15:40:46;6.03;;;1.40;;
25449;SDS011;13371;52.080;5.624;2022-08-21T15:43:32;4.28;;;1.00;;
25449;SDS011;13371;52.080;5.624;2022-08-21T15:46:05;3.67;;;1.13;;
25449;SDS011;13371;52.080;5.624;2022-08-21T15:48:30;8.02;;;1.35;;
25449;SDS011;13371;52.080;5.624;2022-08-21T15:50:56;5.32;;;1.77;;
25449;SDS011;13371;52.080;5.624;2022-08-21T15:53:21;7.63;;;1.92;;
25449;SDS011;13371;52.080;5.624;2022-08-21T15:55:47;6.38;;;1.35;;
25449;SDS011;13371;52.080;5.624;2022-08-21T15:58:16;6.20;;;1.48;;
25449;SDS011;13371;52.080;5.624;2022-08-21T16:00:44;6.75;;;1.40;;
25449;SDS011;13371;52.080;5.624;2022-08-21T16:03:13;5.80;;;1.63;;
25449;SDS011;13371;52.080;5.624;2022-08-21T16:05:41;5.47;;;1.40;;
25449;SDS011;13371;52.080;5.624;2022-08-21T16:08:09;4.70;;;1.20;;
25449;SDS011;13371;52.080;5.624;2022-08-21T16:10:36;7.97;;;1.65;;
25449;SDS011;13371;52.080;5.624;2022-08-21T16:13:04;6.53;;;1.50;;
25449;SDS011;13371;52.080;5.624;2022-08-21T16:15:32;5.40;;;1.80;;
25449;SDS011;13371;52.080;5.624;2022-08-21T16:17:58;6.65;;;1.52;;
25449;SDS011;13371;52.080;5.624;2022-08-21T16:20:24;5.72;;;1.42;;